sensor_id;sensor_type;location;lat;lon;timestamp;temperature;humidity
24226;DHT22;51462;51.422;5.514;2023-01-15T00:00:13;7.70;99.90
24226;DHT22;51462;51.422;5.514;2023-01-15T00:02:39;7.80;99.90
24226;DHT22;51462;51.422;5.514;2023-01-15T00:05:05;8.00;99.90
24226;DHT22;51462;51.422;5.514;2023-01-15T00:07:31;7.80;99.90
24226;DHT22;51462;51.422;5.514;2023-01-15T00:09:56;7.60;99.90
24226;DHT22;51462;51.422;5.514;2023-01-15T00:12:22;7.80;99.90
24226;DHT22;51462;51.422;5.514;2023-01-15T00:14:48;7.80;99.90
24226;DHT22;51462;51.422;5.514;2023-01-15T00:17:13;7.70;99.90
24226;DHT22;51462;51.422;5.514;2023-01-15T00:19:39;7.60;99.90
24226;DHT22;51462;51.422;5.514;2023-01-15T00:22:04;7.40;99.90
24226;DHT22;51462;51.422;5.514;2023-01-15T00:24:30;7.60;99.90
24226;DHT22;51462;51.422;5.514;2023-01-15T00:27:14;7.70;99.90
24226;DHT22;51462;51.422;5.514;2023-01-15T00:29:59;7.40;99.90
24226;DHT22;51462;51.422;5.514;2023-01-15T00:32:24;7.70;99.90
24226;DHT22;51462;51.422;5.514;2023-01-15T00:34:52;7.40;99.90
24226;DHT22;51462;51.422;5.514;2023-01-15T00:37:17;7.70;99.90
24226;DHT22;51462;51.422;5.514;2023-01-15T00:39:43;7.40;99.90
24226;DHT22;51462;51.422;5.514;2023-01-15T00:42:10;7.70;99.90
24226;DHT22;51462;51.422;5.514;2023-01-15T00:44:36;7.80;99.90
24226;DHT22;51462;51.422;5.514;2023-01-15T00:47:01;7.70;99.90
24226;DHT22;51462;51.422;5.514;2023-01-15T00:49:27;7.70;99.90
24226;DHT22;51462;51.422;5.514;2023-01-15T00:51:52;7.60;99.90
24226;DHT22;51462;51.422;5.514;2023-01-15T00:54:18;7.50;99.90
24226;DHT22;51462;51.422;5.514;2023-01-15T00:56:44;7.50;99.90
24226;DHT22;51462;51.422;5.514;2023-01-15T00:59:10;7.20;99.90
24226;DHT22;51462;51.422;5.514;2023-01-15T01:01:35;7.40;99.90
24226;DHT22;51462;51.422;5.514;2023-01-15T01:04:01;7.30;99.90
24226;DHT22;51462;51.422;5.514;2023-01-15T01:06:27;7.60;99.90
24226;DHT22;51462;51.422;5.514;2023-01-15T01:08:53;7.60;99.90
24226;DHT22;51462;51.422;5.514;2023-01-15T01:11:21;7.60;99.90
24226;DHT22;51462;51.422;5.514;2023-01-15T01:13:52;7.70;99.90
24226;DHT22;51462;51.422;5.514;2023-01-15T01:16:30;7.70;99.90
24226;DHT22;51462;51.422;5.514;2023-01-15T01:18:58;7.70;99.90
24226;DHT22;51462;51.422;5.514;2023-01-15T01:21:25;7.70;99.90
24226;DHT22;51462;51.422;5.514;2023-01-15T01:23:51;7.70;99.90
24226;DHT22;51462;51.422;5.514;2023-01-15T01:26:17;7.50;99.90
24226;DHT22;51462;51.422;5.514;2023-01-15T01:28:47;7.50;99.90
24226;DHT22;51462;51.422;5.514;2023-01-15T01:31:13;7.60;99.90
24226;DHT22;51462;51.422;5.514;2023-01-15T01:33:39;7.70;99.90
24226;DHT22;51462;51.422;5.514;2023-01-15T01:36:04;7.60;99.90
24226;DHT22;51462;51.422;5.514;2023-01-15T01:38:30;7.50;99.90
24226;DHT22;51462;51.422;5.514;2023-01-15T01:40:56;7.80;99.90
24226;DHT22;51462;51.422;5.514;2023-01-15T01:43:24;7.50;99.90
24226;DHT22;51462;51.422;5.514;2023-01-15T01:45:50;7.40;99.90
24226;DHT22;51462;51.422;5.514;2023-01-15T01:48:17;7.40;99.90
24226;DHT22;51462;51.422;5.514;2023-01-15T01:50:45;7.50;99.90
24226;DHT22;51462;51.422;5.514;2023-01-15T01:53:18;7.50;99.90
24226;DHT22;51462;51.422;5.514;2023-01-15T01:55:45;7.50;99.90
24226;DHT22;51462;51.422;5.514;2023-01-15T01:58:11;7.50;99.90
24226;DHT22;51462;51.422;5.514;2023-01-15T02:00:39;7.60;99.90
24226;DHT22;51462;51.422;5.514;2023-01-15T02:03:07;7.60;99.90
24226;DHT22;51462;51.422;5.514;2023-01-15T02:05:37;7.40;99.90
24226;DHT22;51462;51.422;5.514;2023-01-15T02:08:04;7.40;99.90
24226;DHT22;51462;51.422;5.514;2023-01-15T02:10:30;7.30;99.90
24226;DHT22;51462;51.422;5.514;2023-01-15T02:15:32;7.40;99.90
24226;DHT22;51462;51.422;5.514;2023-01-15T02:18:21;7.40;99.90
24226;DHT22;51462;51.422;5.514;2023-01-15T02:20:55;7.70;99.90
24226;DHT22;51462;51.422;5.514;2023-01-15T02:23:49;7.50;99.90
24226;DHT22;51462;51.422;5.514;2023-01-15T02:28:50;7.30;99.90
24226;DHT22;51462;51.422;5.514;2023-01-15T02:31:38;7.30;99.90
24226;DHT22;51462;51.422;5.514;2023-01-15T02:34:12;7.30;99.90
24226;DHT22;51462;51.422;5.514;2023-01-15T02:36:43;7.40;99.90
24226;DHT22;51462;51.422;5.514;2023-01-15T02:39:12;7.20;99.90
24226;DHT22;51462;51.422;5.514;2023-01-15T02:41:43;7.30;99.90
24226;DHT22;51462;51.422;5.514;2023-01-15T02:44:13;7.20;99.90
24226;DHT22;51462;51.422;5.514;2023-01-15T02:46:40;7.20;99.90
24226;DHT22;51462;51.422;5.514;2023-01-15T02:49:08;7.50;99.90
24226;DHT22;51462;51.422;5.514;2023-01-15T02:51:49;7.40;99.90
24226;DHT22;51462;51.422;5.514;2023-01-15T02:54:16;7.30;99.90
24226;DHT22;51462;51.422;5.514;2023-01-15T02:56:44;7.40;99.90
24226;DHT22;51462;51.422;5.514;2023-01-15T02:59:16;7.20;99.90
24226;DHT22;51462;51.422;5.514;2023-01-15T03:01:51;7.20;99.90
24226;DHT22;51462;51.422;5.514;2023-01-15T03:07:17;7.30;99.90
24226;DHT22;51462;51.422;5.514;2023-01-15T03:09:46;7.30;99.90
24226;DHT22;51462;51.422;5.514;2023-01-15T03:17:24;7.30;99.90
24226;DHT22;51462;51.422;5.514;2023-01-15T03:19:57;7.60;99.90
24226;DHT22;51462;51.422;5.514;2023-01-15T03:22:31;7.60;99.90
24226;DHT22;51462;51.422;5.514;2023-01-15T03:25:11;7.40;99.90
24226;DHT22;51462;51.422;5.514;2023-01-15T03:27:38;7.30;99.90
24226;DHT22;51462;51.422;5.514;2023-01-15T03:30:16;7.40;99.90
24226;DHT22;51462;51.422;5.514;2023-01-15T03:32:42;7.60;99.90
24226;DHT22;51462;51.422;5.514;2023-01-15T03:35:47;7.20;99.90
24226;DHT22;51462;51.422;5.514;2023-01-15T03:38:16;7.20;99.90
24226;DHT22;51462;51.422;5.514;2023-01-15T03:46:11;7.10;99.90
24226;DHT22;51462;51.422;5.514;2023-01-15T03:48:47;7.30;99.90
24226;DHT22;51462;51.422;5.514;2023-01-15T03:51:23;7.20;99.90
24226;DHT22;51462;51.422;5.514;2023-01-15T03:53:54;7.30;99.90
24226;DHT22;51462;51.422;5.514;2023-01-15T03:56:41;7.50;99.90
24226;DHT22;51462;51.422;5.514;2023-01-15T03:59:22;7.40;99.90
24226;DHT22;51462;51.422;5.514;2023-01-15T04:01:52;7.20;99.90
24226;DHT22;51462;51.422;5.514;2023-01-15T04:04:18;7.30;99.90
24226;DHT22;51462;51.422;5.514;2023-01-15T04:06:44;7.40;99.90
24226;DHT22;51462;51.422;5.514;2023-01-15T04:09:12;7.30;99.90
24226;DHT22;51462;51.422;5.514;2023-01-15T04:11:39;7.20;99.90
24226;DHT22;51462;51.422;5.514;2023-01-15T04:14:05;7.10;99.90
24226;DHT22;51462;51.422;5.514;2023-01-15T04:16:32;7.40;99.90
24226;DHT22;51462;51.422;5.514;2023-01-15T04:18:58;7.30;99.90
24226;DHT22;51462;51.422;5.514;2023-01-15T04:21:24;7.30;99.90
24226;DHT22;51462;51.422;5.514;2023-01-15T04:23:49;7.30;99.90
24226;DHT22;51462;51.422;5.514;2023-01-15T04:26:15;7.20;99.90
24226;DHT22;51462;51.422;5.514;2023-01-15T04:28:41;7.20;99.90
24226;DHT22;51462;51.422;5.514;2023-01-15T04:31:07;7.30;99.90
24226;DHT22;51462;51.422;5.514;2023-01-15T04:33:33;7.20;99.90
24226;DHT22;51462;51.422;5.514;2023-01-15T04:35:59;7.40;99.90
24226;DHT22;51462;51.422;5.514;2023-01-15T04:38:26;7.30;99.90
24226;DHT22;51462;51.422;5.514;2023-01-15T04:40:51;7.30;99.90
24226;DHT22;51462;51.422;5.514;2023-01-15T04:43:36;7.40;99.90
24226;DHT22;51462;51.422;5.514;2023-01-15T04:46:21;7.20;99.90
24226;DHT22;51462;51.422;5.514;2023-01-15T04:48:47;7.30;99.90
24226;DHT22;51462;51.422;5.514;2023-01-15T04:51:12;7.20;99.90
24226;DHT22;51462;51.422;5.514;2023-01-15T04:53:38;7.30;99.90
24226;DHT22;51462;51.422;5.514;2023-01-15T04:56:04;7.10;99.90
24226;DHT22;51462;51.422;5.514;2023-01-15T04:58:31;7.20;99.90
24226;DHT22;51462;51.422;5.514;2023-01-15T05:00:57;7.30;99.90
24226;DHT22;51462;51.422;5.514;2023-01-15T05:03:25;7.20;99.90
24226;DHT22;51462;51.422;5.514;2023-01-15T05:05:51;7.30;99.90
24226;DHT22;51462;51.422;5.514;2023-01-15T05:08:17;7.20;99.90
24226;DHT22;51462;51.422;5.514;2023-01-15T05:10:42;7.20;99.90
24226;DHT22;51462;51.422;5.514;2023-01-15T05:13:08;7.00;99.90
24226;DHT22;51462;51.422;5.514;2023-01-15T05:15:33;7.10;99.90
24226;DHT22;51462;51.422;5.514;2023-01-15T05:17:59;7.10;99.90
24226;DHT22;51462;51.422;5.514;2023-01-15T05:20:25;7.20;99.90
24226;DHT22;51462;51.422;5.514;2023-01-15T05:22:50;7.00;99.90
24226;DHT22;51462;51.422;5.514;2023-01-15T05:25:16;7.00;99.90
24226;DHT22;51462;51.422;5.514;2023-01-15T05:27:41;7.10;99.90
24226;DHT22;51462;51.422;5.514;2023-01-15T05:30:08;7.10;99.90
24226;DHT22;51462;51.422;5.514;2023-01-15T05:32:33;7.10;99.90
24226;DHT22;51462;51.422;5.514;2023-01-15T05:34:59;7.20;99.90
24226;DHT22;51462;51.422;5.514;2023-01-15T05:37:25;7.00;99.90
24226;DHT22;51462;51.422;5.514;2023-01-15T05:39:50;6.90;99.90
24226;DHT22;51462;51.422;5.514;2023-01-15T05:42:16;6.90;99.90
24226;DHT22;51462;51.422;5.514;2023-01-15T05:44:41;7.00;99.90
24226;DHT22;51462;51.422;5.514;2023-01-15T05:47:08;7.00;99.90
24226;DHT22;51462;51.422;5.514;2023-01-15T05:49:34;7.10;99.90
24226;DHT22;51462;51.422;5.514;2023-01-15T05:52:00;7.00;99.90
24226;DHT22;51462;51.422;5.514;2023-01-15T05:54:32;6.80;99.90
24226;DHT22;51462;51.422;5.514;2023-01-15T05:56:58;6.90;99.90
24226;DHT22;51462;51.422;5.514;2023-01-15T05:59:27;7.00;99.90
24226;DHT22;51462;51.422;5.514;2023-01-15T06:01:53;7.00;99.90
24226;DHT22;51462;51.422;5.514;2023-01-15T06:04:20;7.00;99.90
24226;DHT22;51462;51.422;5.514;2023-01-15T06:06:48;7.10;99.90
24226;DHT22;51462;51.422;5.514;2023-01-15T06:09:13;7.10;99.90
24226;DHT22;51462;51.422;5.514;2023-01-15T06:11:39;7.10;99.90
24226;DHT22;51462;51.422;5.514;2023-01-15T06:14:06;7.30;99.90
24226;DHT22;51462;51.422;5.514;2023-01-15T06:16:32;7.20;99.90
24226;DHT22;51462;51.422;5.514;2023-01-15T06:19:03;7.00;99.90
24226;DHT22;51462;51.422;5.514;2023-01-15T06:21:30;6.90;99.90
24226;DHT22;51462;51.422;5.514;2023-01-15T06:23:55;7.00;99.90
24226;DHT22;51462;51.422;5.514;2023-01-15T06:26:21;6.90;99.90
24226;DHT22;51462;51.422;5.514;2023-01-15T06:28:48;7.00;99.90
24226;DHT22;51462;51.422;5.514;2023-01-15T06:33:42;7.00;99.90
24226;DHT22;51462;51.422;5.514;2023-01-15T06:36:13;7.00;99.90
24226;DHT22;51462;51.422;5.514;2023-01-15T06:38:39;7.10;99.90
24226;DHT22;51462;51.422;5.514;2023-01-15T06:41:07;7.00;99.90
24226;DHT22;51462;51.422;5.514;2023-01-15T06:43:54;6.80;99.90
24226;DHT22;51462;51.422;5.514;2023-01-15T06:46:46;6.80;99.90
24226;DHT22;51462;51.422;5.514;2023-01-15T06:49:32;6.80;99.90
24226;DHT22;51462;51.422;5.514;2023-01-15T06:51:57;6.70;99.90
24226;DHT22;51462;51.422;5.514;2023-01-15T06:54:23;6.70;99.90
24226;DHT22;51462;51.422;5.514;2023-01-15T06:56:49;7.00;99.90
24226;DHT22;51462;51.422;5.514;2023-01-15T06:59:14;6.80;99.90
24226;DHT22;51462;51.422;5.514;2023-01-15T07:01:40;6.80;99.90
24226;DHT22;51462;51.422;5.514;2023-01-15T07:04:05;6.80;99.90
24226;DHT22;51462;51.422;5.514;2023-01-15T07:06:31;7.00;99.90
24226;DHT22;51462;51.422;5.514;2023-01-15T07:08:57;6.80;99.90
24226;DHT22;51462;51.422;5.514;2023-01-15T07:11:22;6.90;99.90
24226;DHT22;51462;51.422;5.514;2023-01-15T07:13:48;6.70;99.90
24226;DHT22;51462;51.422;5.514;2023-01-15T07:16:14;6.80;99.90
24226;DHT22;51462;51.422;5.514;2023-01-15T07:18:54;6.90;99.90
24226;DHT22;51462;51.422;5.514;2023-01-15T07:21:20;6.70;99.90
24226;DHT22;51462;51.422;5.514;2023-01-15T07:23:46;6.70;99.90
24226;DHT22;51462;51.422;5.514;2023-01-15T07:26:11;6.80;99.90
24226;DHT22;51462;51.422;5.514;2023-01-15T07:28:37;7.00;99.90
24226;DHT22;51462;51.422;5.514;2023-01-15T07:31:03;6.90;99.90
24226;DHT22;51462;51.422;5.514;2023-01-15T07:33:28;6.80;99.90
24226;DHT22;51462;51.422;5.514;2023-01-15T07:35:54;6.70;99.90
24226;DHT22;51462;51.422;5.514;2023-01-15T07:38:21;6.70;99.90
24226;DHT22;51462;51.422;5.514;2023-01-15T07:40:47;6.60;99.90
24226;DHT22;51462;51.422;5.514;2023-01-15T07:43:32;6.60;99.90
24226;DHT22;51462;51.422;5.514;2023-01-15T07:46:16;6.60;99.90
24226;DHT22;51462;51.422;5.514;2023-01-15T07:49:00;6.70;99.90
24226;DHT22;51462;51.422;5.514;2023-01-15T07:51:44;6.70;99.90
24226;DHT22;51462;51.422;5.514;2023-01-15T07:54:10;6.90;99.90
24226;DHT22;51462;51.422;5.514;2023-01-15T07:56:36;6.70;99.90
24226;DHT22;51462;51.422;5.514;2023-01-15T07:59:02;6.60;99.90
24226;DHT22;51462;51.422;5.514;2023-01-15T08:01:27;6.80;99.90
24226;DHT22;51462;51.422;5.514;2023-01-15T08:03:53;6.70;99.90
24226;DHT22;51462;51.422;5.514;2023-01-15T08:06:18;6.70;99.90
24226;DHT22;51462;51.422;5.514;2023-01-15T08:08:44;6.40;99.90
24226;DHT22;51462;51.422;5.514;2023-01-15T08:11:10;6.30;99.90
24226;DHT22;51462;51.422;5.514;2023-01-15T08:13:54;6.40;99.90
24226;DHT22;51462;51.422;5.514;2023-01-15T08:16:37;6.30;99.90
24226;DHT22;51462;51.422;5.514;2023-01-15T08:19:03;6.40;99.90
24226;DHT22;51462;51.422;5.514;2023-01-15T08:21:29;6.40;99.90
24226;DHT22;51462;51.422;5.514;2023-01-15T08:23:54;6.40;99.90
24226;DHT22;51462;51.422;5.514;2023-01-15T08:26:20;6.30;99.90
24226;DHT22;51462;51.422;5.514;2023-01-15T08:28:45;6.10;99.90
24226;DHT22;51462;51.422;5.514;2023-01-15T08:31:11;6.10;99.90
24226;DHT22;51462;51.422;5.514;2023-01-15T08:33:36;6.10;99.90
24226;DHT22;51462;51.422;5.514;2023-01-15T08:36:02;6.50;99.90
24226;DHT22;51462;51.422;5.514;2023-01-15T08:38:28;6.50;99.90
24226;DHT22;51462;51.422;5.514;2023-01-15T08:40:54;6.10;99.90
24226;DHT22;51462;51.422;5.514;2023-01-15T08:43:24;6.30;99.90
24226;DHT22;51462;51.422;5.514;2023-01-15T08:45:49;6.40;99.90
24226;DHT22;51462;51.422;5.514;2023-01-15T08:48:15;6.20;99.90
24226;DHT22;51462;51.422;5.514;2023-01-15T08:50:40;6.30;99.90
24226;DHT22;51462;51.422;5.514;2023-01-15T08:53:06;6.40;99.90
24226;DHT22;51462;51.422;5.514;2023-01-15T08:55:31;6.50;99.90
24226;DHT22;51462;51.422;5.514;2023-01-15T08:57:57;6.40;99.90
24226;DHT22;51462;51.422;5.514;2023-01-15T09:00:23;6.30;99.90
24226;DHT22;51462;51.422;5.514;2023-01-15T09:02:49;6.60;99.90
24226;DHT22;51462;51.422;5.514;2023-01-15T09:05:15;6.60;99.90
24226;DHT22;51462;51.422;5.514;2023-01-15T09:07:41;6.40;99.90
24226;DHT22;51462;51.422;5.514;2023-01-15T09:10:06;6.40;99.90
24226;DHT22;51462;51.422;5.514;2023-01-15T09:12:32;6.30;99.90
24226;DHT22;51462;51.422;5.514;2023-01-15T09:14:58;6.40;99.90
24226;DHT22;51462;51.422;5.514;2023-01-15T09:17:25;6.60;99.90
24226;DHT22;51462;51.422;5.514;2023-01-15T09:19:51;6.50;99.90
24226;DHT22;51462;51.422;5.514;2023-01-15T09:22:16;6.40;99.90
24226;DHT22;51462;51.422;5.514;2023-01-15T09:24:42;6.50;99.90
24226;DHT22;51462;51.422;5.514;2023-01-15T09:27:11;6.50;99.90
24226;DHT22;51462;51.422;5.514;2023-01-15T09:29:36;6.50;99.90
24226;DHT22;51462;51.422;5.514;2023-01-15T09:32:02;6.50;99.90
24226;DHT22;51462;51.422;5.514;2023-01-15T09:34:27;6.60;99.90
24226;DHT22;51462;51.422;5.514;2023-01-15T09:36:53;6.70;99.90
24226;DHT22;51462;51.422;5.514;2023-01-15T09:39:18;6.80;99.90
24226;DHT22;51462;51.422;5.514;2023-01-15T09:42:06;6.70;99.90
24226;DHT22;51462;51.422;5.514;2023-01-15T09:44:52;6.80;99.90
24226;DHT22;51462;51.422;5.514;2023-01-15T09:50:43;6.80;99.90
24226;DHT22;51462;51.422;5.514;2023-01-15T09:55:27;7.00;99.90
24226;DHT22;51462;51.422;5.514;2023-01-15T09:57:56;6.90;99.90
24226;DHT22;51462;51.422;5.514;2023-01-15T10:00:25;7.10;99.90
24226;DHT22;51462;51.422;5.514;2023-01-15T10:02:57;7.00;99.90
24226;DHT22;51462;51.422;5.514;2023-01-15T10:05:32;7.00;99.90
24226;DHT22;51462;51.422;5.514;2023-01-15T10:10:47;6.90;99.90
24226;DHT22;51462;51.422;5.514;2023-01-15T10:13:22;7.00;99.90
24226;DHT22;51462;51.422;5.514;2023-01-15T10:15:51;7.00;99.90
24226;DHT22;51462;51.422;5.514;2023-01-15T10:18:20;7.00;99.90
24226;DHT22;51462;51.422;5.514;2023-01-15T10:23:37;7.00;99.90
24226;DHT22;51462;51.422;5.514;2023-01-15T10:31:51;7.20;99.90
24226;DHT22;51462;51.422;5.514;2023-01-15T10:37:22;7.20;99.90
24226;DHT22;51462;51.422;5.514;2023-01-15T10:40:10;7.10;99.90
24226;DHT22;51462;51.422;5.514;2023-01-15T10:45:21;7.10;99.90
24226;DHT22;51462;51.422;5.514;2023-01-15T10:47:57;7.20;99.90
24226;DHT22;51462;51.422;5.514;2023-01-15T10:50:26;7.30;99.90
24226;DHT22;51462;51.422;5.514;2023-01-15T10:55:46;7.20;99.90
24226;DHT22;51462;51.422;5.514;2023-01-15T11:01:03;7.20;99.90
24226;DHT22;51462;51.422;5.514;2023-01-15T11:03:36;7.40;99.90
24226;DHT22;51462;51.422;5.514;2023-01-15T11:06:03;7.40;99.90
24226;DHT22;51462;51.422;5.514;2023-01-15T11:08:30;7.40;99.90
24226;DHT22;51462;51.422;5.514;2023-01-15T11:10:57;7.50;99.90
24226;DHT22;51462;51.422;5.514;2023-01-15T11:13:29;7.60;99.90
24226;DHT22;51462;51.422;5.514;2023-01-15T11:16:20;7.50;99.90
24226;DHT22;51462;51.422;5.514;2023-01-15T11:19:27;7.40;99.90
24226;DHT22;51462;51.422;5.514;2023-01-15T11:24:52;7.50;99.90
24226;DHT22;51462;51.422;5.514;2023-01-15T11:27:21;7.50;99.90
24226;DHT22;51462;51.422;5.514;2023-01-15T11:30:00;7.50;99.90
24226;DHT22;51462;51.422;5.514;2023-01-15T11:32:32;7.60;99.90
24226;DHT22;51462;51.422;5.514;2023-01-15T11:35:16;7.60;99.90
24226;DHT22;51462;51.422;5.514;2023-01-15T11:37:42;7.50;99.90
24226;DHT22;51462;51.422;5.514;2023-01-15T11:40:18;7.50;99.90
24226;DHT22;51462;51.422;5.514;2023-01-15T11:42:46;7.70;99.90
24226;DHT22;51462;51.422;5.514;2023-01-15T11:45:30;7.60;99.90
24226;DHT22;51462;51.422;5.514;2023-01-15T11:48:20;7.50;99.90
24226;DHT22;51462;51.422;5.514;2023-01-15T11:51:15;7.60;99.90
24226;DHT22;51462;51.422;5.514;2023-01-15T11:53:44;7.60;99.90
24226;DHT22;51462;51.422;5.514;2023-01-15T11:56:23;7.70;99.90
24226;DHT22;51462;51.422;5.514;2023-01-15T11:58:51;7.70;99.90
24226;DHT22;51462;51.422;5.514;2023-01-15T12:01:35;7.60;99.90
24226;DHT22;51462;51.422;5.514;2023-01-15T12:06:48;7.50;99.90
24226;DHT22;51462;51.422;5.514;2023-01-15T12:09:38;7.50;99.90
24226;DHT22;51462;51.422;5.514;2023-01-15T12:20:48;7.60;99.90
24226;DHT22;51462;51.422;5.514;2023-01-15T12:23:43;7.50;99.90
24226;DHT22;51462;51.422;5.514;2023-01-15T12:31:41;7.60;99.90
24226;DHT22;51462;51.422;5.514;2023-01-15T12:34:25;7.70;99.90
24226;DHT22;51462;51.422;5.514;2023-01-15T12:39:48;7.40;99.90
24226;DHT22;51462;51.422;5.514;2023-01-15T12:42:19;7.50;99.90
24226;DHT22;51462;51.422;5.514;2023-01-15T12:45:06;7.60;99.90
24226;DHT22;51462;51.422;5.514;2023-01-15T12:47:41;7.60;99.90
24226;DHT22;51462;51.422;5.514;2023-01-15T12:50:37;7.50;99.90
24226;DHT22;51462;51.422;5.514;2023-01-15T12:53:38;7.40;99.90
24226;DHT22;51462;51.422;5.514;2023-01-15T13:01:29;7.40;99.90
24226;DHT22;51462;51.422;5.514;2023-01-15T13:04:14;7.50;99.90
24226;DHT22;51462;51.422;5.514;2023-01-15T13:06:45;7.50;99.90
24226;DHT22;51462;51.422;5.514;2023-01-15T13:09:48;7.70;99.90
24226;DHT22;51462;51.422;5.514;2023-01-15T13:12:16;7.70;99.90
24226;DHT22;51462;51.422;5.514;2023-01-15T13:14:43;7.90;99.90
24226;DHT22;51462;51.422;5.514;2023-01-15T13:17:21;7.90;99.90
24226;DHT22;51462;51.422;5.514;2023-01-15T13:20:04;8.10;99.90
24226;DHT22;51462;51.422;5.514;2023-01-15T13:22:40;8.10;99.90
24226;DHT22;51462;51.422;5.514;2023-01-15T13:25:27;8.00;99.90
24226;DHT22;51462;51.422;5.514;2023-01-15T13:28:16;8.00;99.90
24226;DHT22;51462;51.422;5.514;2023-01-15T13:35:50;8.20;99.90
24226;DHT22;51462;51.422;5.514;2023-01-15T13:38:23;7.90;99.90
24226;DHT22;51462;51.422;5.514;2023-01-15T13:40:52;8.10;99.90
24226;DHT22;51462;51.422;5.514;2023-01-15T13:43:37;7.80;99.90
24226;DHT22;51462;51.422;5.514;2023-01-15T13:46:12;8.00;99.90
24226;DHT22;51462;51.422;5.514;2023-01-15T13:48:44;8.00;99.90
24226;DHT22;51462;51.422;5.514;2023-01-15T13:51:31;7.90;99.90
24226;DHT22;51462;51.422;5.514;2023-01-15T13:53:58;7.90;99.90
24226;DHT22;51462;51.422;5.514;2023-01-15T13:56:31;7.90;99.90
24226;DHT22;51462;51.422;5.514;2023-01-15T14:02:12;8.00;99.90
24226;DHT22;51462;51.422;5.514;2023-01-15T14:04:38;8.10;99.90
24226;DHT22;51462;51.422;5.514;2023-01-15T14:07:18;8.10;99.90
24226;DHT22;51462;51.422;5.514;2023-01-15T14:09:43;8.20;99.90
24226;DHT22;51462;51.422;5.514;2023-01-15T14:15:02;7.90;99.90
24226;DHT22;51462;51.422;5.514;2023-01-15T14:23:34;8.10;99.90
24226;DHT22;51462;51.422;5.514;2023-01-15T14:32:19;7.80;99.90
24226;DHT22;51462;51.422;5.514;2023-01-15T14:34:57;7.80;99.90
24226;DHT22;51462;51.422;5.514;2023-01-15T14:37:28;7.80;99.90
24226;DHT22;51462;51.422;5.514;2023-01-15T14:39:59;7.90;99.90
24226;DHT22;51462;51.422;5.514;2023-01-15T14:42:30;7.80;99.90
24226;DHT22;51462;51.422;5.514;2023-01-15T14:48:10;8.00;99.90
24226;DHT22;51462;51.422;5.514;2023-01-15T14:50:42;8.00;99.90
24226;DHT22;51462;51.422;5.514;2023-01-15T14:55:58;7.80;99.90
24226;DHT22;51462;51.422;5.514;2023-01-15T14:58:51;7.70;99.90
24226;DHT22;51462;51.422;5.514;2023-01-15T15:06:48;7.80;99.90
24226;DHT22;51462;51.422;5.514;2023-01-15T15:09:31;7.90;99.90
24226;DHT22;51462;51.422;5.514;2023-01-15T15:15:03;7.70;99.90
24226;DHT22;51462;51.422;5.514;2023-01-15T15:23:33;7.80;99.90
24226;DHT22;51462;51.422;5.514;2023-01-15T15:26:26;7.60;99.90
24226;DHT22;51462;51.422;5.514;2023-01-15T15:28:59;7.60;99.90
24226;DHT22;51462;51.422;5.514;2023-01-15T15:31:25;7.60;99.90
24226;DHT22;51462;51.422;5.514;2023-01-15T15:33:55;7.60;99.90
24226;DHT22;51462;51.422;5.514;2023-01-15T15:36:26;7.70;99.90
24226;DHT22;51462;51.422;5.514;2023-01-15T15:39:02;7.80;99.90
24226;DHT22;51462;51.422;5.514;2023-01-15T15:41:35;7.60;99.90
24226;DHT22;51462;51.422;5.514;2023-01-15T15:44:33;7.60;99.90
24226;DHT22;51462;51.422;5.514;2023-01-15T15:47:23;7.60;99.90
24226;DHT22;51462;51.422;5.514;2023-01-15T15:50:23;7.70;99.90
24226;DHT22;51462;51.422;5.514;2023-01-15T15:52:50;7.80;99.90
24226;DHT22;51462;51.422;5.514;2023-01-15T15:55:17;7.60;99.90
24226;DHT22;51462;51.422;5.514;2023-01-15T15:57:46;7.40;99.90
24226;DHT22;51462;51.422;5.514;2023-01-15T16:00:27;7.50;99.90
24226;DHT22;51462;51.422;5.514;2023-01-15T16:02:54;7.40;99.90
24226;DHT22;51462;51.422;5.514;2023-01-15T16:05:23;7.30;99.90
24226;DHT22;51462;51.422;5.514;2023-01-15T16:07:50;7.60;99.90
24226;DHT22;51462;51.422;5.514;2023-01-15T16:10:18;7.40;99.90
24226;DHT22;51462;51.422;5.514;2023-01-15T16:12:55;7.50;99.90
24226;DHT22;51462;51.422;5.514;2023-01-15T16:15:25;7.20;99.90
24226;DHT22;51462;51.422;5.514;2023-01-15T16:17:54;7.30;99.90
24226;DHT22;51462;51.422;5.514;2023-01-15T16:20:21;7.20;99.90
24226;DHT22;51462;51.422;5.514;2023-01-15T16:23:00;7.20;99.90
24226;DHT22;51462;51.422;5.514;2023-01-15T16:25:29;7.20;99.90
24226;DHT22;51462;51.422;5.514;2023-01-15T16:27:58;7.20;99.90
24226;DHT22;51462;51.422;5.514;2023-01-15T16:30:24;7.30;99.90
24226;DHT22;51462;51.422;5.514;2023-01-15T16:32:51;7.20;99.90
24226;DHT22;51462;51.422;5.514;2023-01-15T16:35:20;7.20;99.90
24226;DHT22;51462;51.422;5.514;2023-01-15T16:37:58;7.40;99.90
24226;DHT22;51462;51.422;5.514;2023-01-15T16:40:31;7.20;99.90
24226;DHT22;51462;51.422;5.514;2023-01-15T16:43:14;7.20;99.90
24226;DHT22;51462;51.422;5.514;2023-01-15T16:46:14;7.00;99.90
24226;DHT22;51462;51.422;5.514;2023-01-15T16:48:40;7.20;99.90
24226;DHT22;51462;51.422;5.514;2023-01-15T16:51:43;7.20;99.90
24226;DHT22;51462;51.422;5.514;2023-01-15T16:56:56;7.10;99.90
24226;DHT22;51462;51.422;5.514;2023-01-15T17:02:10;7.10;99.90
24226;DHT22;51462;51.422;5.514;2023-01-15T17:04:37;7.00;99.90
24226;DHT22;51462;51.422;5.514;2023-01-15T17:07:31;6.90;99.90
24226;DHT22;51462;51.422;5.514;2023-01-15T17:09:59;6.90;99.90
24226;DHT22;51462;51.422;5.514;2023-01-15T17:12:35;6.80;99.90
24226;DHT22;51462;51.422;5.514;2023-01-15T17:17:47;7.10;99.90
24226;DHT22;51462;51.422;5.514;2023-01-15T17:20:14;7.00;99.90
24226;DHT22;51462;51.422;5.514;2023-01-15T17:22:43;6.90;99.90
24226;DHT22;51462;51.422;5.514;2023-01-15T17:25:27;6.90;99.90
24226;DHT22;51462;51.422;5.514;2023-01-15T17:27:55;6.90;99.90
24226;DHT22;51462;51.422;5.514;2023-01-15T17:30:22;6.80;99.90
24226;DHT22;51462;51.422;5.514;2023-01-15T17:33:02;6.70;99.90
24226;DHT22;51462;51.422;5.514;2023-01-15T17:35:30;6.90;99.90
24226;DHT22;51462;51.422;5.514;2023-01-15T17:37:55;7.00;99.90
24226;DHT22;51462;51.422;5.514;2023-01-15T17:40:21;6.90;99.90
24226;DHT22;51462;51.422;5.514;2023-01-15T17:42:47;6.90;99.90
24226;DHT22;51462;51.422;5.514;2023-01-15T17:45:21;7.00;99.90
24226;DHT22;51462;51.422;5.514;2023-01-15T17:47:47;6.90;99.90
24226;DHT22;51462;51.422;5.514;2023-01-15T17:50:13;6.70;99.90
24226;DHT22;51462;51.422;5.514;2023-01-15T17:52:39;6.90;99.90
24226;DHT22;51462;51.422;5.514;2023-01-15T17:55:05;6.70;99.90
24226;DHT22;51462;51.422;5.514;2023-01-15T17:57:50;6.80;99.90
24226;DHT22;51462;51.422;5.514;2023-01-15T18:00:51;7.20;99.90
24226;DHT22;51462;51.422;5.514;2023-01-15T18:03:38;6.70;99.90
24226;DHT22;51462;51.422;5.514;2023-01-15T18:06:24;6.90;99.90
24226;DHT22;51462;51.422;5.514;2023-01-15T18:08:53;6.70;99.90
24226;DHT22;51462;51.422;5.514;2023-01-15T18:11:20;6.90;99.90
24226;DHT22;51462;51.422;5.514;2023-01-15T18:13:46;6.80;99.90
24226;DHT22;51462;51.422;5.514;2023-01-15T18:16:11;6.70;99.90
24226;DHT22;51462;51.422;5.514;2023-01-15T18:18:37;6.90;99.90